sensor_id;sensor_type;location;lat;lon;timestamp;temperature;humidity
71177;DHT22;58877;51.992;4.504;2023-02-22T00:01:39;8.19;82.62
71177;DHT22;58877;51.992;4.504;2023-02-22T00:04:16;8.15;82.64
71177;DHT22;58877;51.992;4.504;2023-02-22T00:06:46;8.21;82.52
71177;DHT22;58877;51.992;4.504;2023-02-22T00:09:12;8.19;82.53
71177;DHT22;58877;51.992;4.504;2023-02-22T00:11:46;8.25;82.51
71177;DHT22;58877;51.992;4.504;2023-02-22T00:14:12;8.23;82.12
71177;DHT22;58877;51.992;4.504;2023-02-22T00:16:38;8.16;82.35
71177;DHT22;58877;51.992;4.504;2023-02-22T00:19:04;8.19;82.33
71177;DHT22;58877;51.992;4.504;2023-02-22T00:21:30;8.17;82.36
71177;DHT22;58877;51.992;4.504;2023-02-22T00:23:56;8.17;82.44
71177;DHT22;58877;51.992;4.504;2023-02-22T00:26:32;8.15;82.47
71177;DHT22;58877;51.992;4.504;2023-02-22T00:28:58;8.13;82.64
71177;DHT22;58877;51.992;4.504;2023-02-22T00:31:23;8.07;82.51
71177;DHT22;58877;51.992;4.504;2023-02-22T00:33:49;8.02;82.23
71177;DHT22;58877;51.992;4.504;2023-02-22T00:36:18;7.93;82.46
71177;DHT22;58877;51.992;4.504;2023-02-22T00:38:44;7.85;82.46
71177;DHT22;58877;51.992;4.504;2023-02-22T00:41:15;7.81;82.55
71177;DHT22;58877;51.992;4.504;2023-02-22T00:43:44;7.86;82.44
71177;DHT22;58877;51.992;4.504;2023-02-22T00:46:12;7.82;82.35
71177;DHT22;58877;51.992;4.504;2023-02-22T00:48:37;7.79;82.56
71177;DHT22;58877;51.992;4.504;2023-02-22T00:51:05;7.77;82.46
71177;DHT22;58877;51.992;4.504;2023-02-22T00:53:31;7.70;82.59
71177;DHT22;58877;51.992;4.504;2023-02-22T00:55:56;7.70;82.71
71177;DHT22;58877;51.992;4.504;2023-02-22T00:58:22;7.71;82.91
71177;DHT22;58877;51.992;4.504;2023-02-22T01:00:49;7.71;82.74
71177;DHT22;58877;51.992;4.504;2023-02-22T01:03:18;7.70;82.62
71177;DHT22;58877;51.992;4.504;2023-02-22T01:05:45;7.68;82.46
71177;DHT22;58877;51.992;4.504;2023-02-22T01:08:13;7.64;82.72
71177;DHT22;58877;51.992;4.504;2023-02-22T01:10:43;7.70;82.74
71177;DHT22;58877;51.992;4.504;2023-02-22T01:13:10;7.75;82.47
71177;DHT22;58877;51.992;4.504;2023-02-22T01:15:40;7.79;82.13
71177;DHT22;58877;51.992;4.504;2023-02-22T01:18:07;7.77;81.73
71177;DHT22;58877;51.992;4.504;2023-02-22T01:20:34;7.72;81.91
71177;DHT22;58877;51.992;4.504;2023-02-22T01:23:05;7.67;81.83
71177;DHT22;58877;51.992;4.504;2023-02-22T01:25:33;7.55;81.90
71177;DHT22;58877;51.992;4.504;2023-02-22T01:28:04;7.43;82.27
71177;DHT22;58877;51.992;4.504;2023-02-22T01:30:32;7.38;82.71
71177;DHT22;58877;51.992;4.504;2023-02-22T01:33:00;7.37;82.83
71177;DHT22;58877;51.992;4.504;2023-02-22T01:35:29;7.30;83.19
71177;DHT22;58877;51.992;4.504;2023-02-22T01:37:56;7.32;83.29
71177;DHT22;58877;51.992;4.504;2023-02-22T01:40:27;7.37;83.30
71177;DHT22;58877;51.992;4.504;2023-02-22T01:42:55;7.35;83.30
71177;DHT22;58877;51.992;4.504;2023-02-22T01:51:19;7.35;83.03
71177;DHT22;58877;51.992;4.504;2023-02-22T01:56:20;7.27;83.16
71177;DHT22;58877;51.992;4.504;2023-02-22T01:59:01;7.23;83.21
71177;DHT22;58877;51.992;4.504;2023-02-22T02:01:28;7.21;83.38
71177;DHT22;58877;51.992;4.504;2023-02-22T02:03:58;7.23;83.34
71177;DHT22;58877;51.992;4.504;2023-02-22T02:06:27;7.27;83.40
71177;DHT22;58877;51.992;4.504;2023-02-22T02:11:37;7.23;83.32
71177;DHT22;58877;51.992;4.504;2023-02-22T02:14:06;7.21;83.44
71177;DHT22;58877;51.992;4.504;2023-02-22T02:16:47;7.27;83.42
71177;DHT22;58877;51.992;4.504;2023-02-22T02:27:18;7.14;83.23
71177;DHT22;58877;51.992;4.504;2023-02-22T02:32:56;7.08;83.05
71177;DHT22;58877;51.992;4.504;2023-02-22T02:38:42;7.08;83.09
71177;DHT22;58877;51.992;4.504;2023-02-22T02:46:25;7.07;83.67
71177;DHT22;58877;51.992;4.504;2023-02-22T02:49:01;7.01;83.68
71177;DHT22;58877;51.992;4.504;2023-02-22T02:51:35;7.06;83.84
71177;DHT22;58877;51.992;4.504;2023-02-22T02:54:03;7.04;83.79
71177;DHT22;58877;51.992;4.504;2023-02-22T02:56:30;7.00;83.96
71177;DHT22;58877;51.992;4.504;2023-02-22T02:58:55;6.96;84.08
71177;DHT22;58877;51.992;4.504;2023-02-22T03:01:56;6.86;84.35
71177;DHT22;58877;51.992;4.504;2023-02-22T03:08:02;6.86;84.67
71177;DHT22;58877;51.992;4.504;2023-02-22T03:10:37;6.83;84.85
71177;DHT22;58877;51.992;4.504;2023-02-22T03:13:22;6.83;85.06
71177;DHT22;58877;51.992;4.504;2023-02-22T03:24:09;6.63;85.42
71177;DHT22;58877;51.992;4.504;2023-02-22T03:26:42;6.66;85.56
71177;DHT22;58877;51.992;4.504;2023-02-22T03:29:12;6.71;85.52
71177;DHT22;58877;51.992;4.504;2023-02-22T03:31:47;6.76;85.56
71177;DHT22;58877;51.992;4.504;2023-02-22T03:34:23;6.79;85.31
71177;DHT22;58877;51.992;4.504;2023-02-22T03:37:07;6.77;85.36
71177;DHT22;58877;51.992;4.504;2023-02-22T03:39:41;6.73;85.32
71177;DHT22;58877;51.992;4.504;2023-02-22T03:42:13;6.65;85.47
71177;DHT22;58877;51.992;4.504;2023-02-22T03:44:43;6.57;85.70
71177;DHT22;58877;51.992;4.504;2023-02-22T03:47:17;6.56;85.87
71177;DHT22;58877;51.992;4.504;2023-02-22T03:49:54;6.57;86.10
71177;DHT22;58877;51.992;4.504;2023-02-22T03:52:22;6.65;86.06
71177;DHT22;58877;51.992;4.504;2023-02-22T03:54:50;6.73;85.95
71177;DHT22;58877;51.992;4.504;2023-02-22T03:57:25;6.73;85.76
71177;DHT22;58877;51.992;4.504;2023-02-22T03:59:51;6.68;85.77
71177;DHT22;58877;51.992;4.504;2023-02-22T04:02:17;6.65;85.96
71177;DHT22;58877;51.992;4.504;2023-02-22T04:04:46;6.63;85.88
71177;DHT22;58877;51.992;4.504;2023-02-22T04:07:12;6.63;86.02
71177;DHT22;58877;51.992;4.504;2023-02-22T04:09:38;6.61;86.14
71177;DHT22;58877;51.992;4.504;2023-02-22T04:12:04;6.61;86.30
71177;DHT22;58877;51.992;4.504;2023-02-22T04:14:30;6.55;86.27
71177;DHT22;58877;51.992;4.504;2023-02-22T04:16:55;6.50;86.58
71177;DHT22;58877;51.992;4.504;2023-02-22T04:19:21;6.43;86.64
71177;DHT22;58877;51.992;4.504;2023-02-22T04:21:47;6.45;86.78
71177;DHT22;58877;51.992;4.504;2023-02-22T04:24:13;6.46;86.82
71177;DHT22;58877;51.992;4.504;2023-02-22T04:26:38;6.52;86.80
71177;DHT22;58877;51.992;4.504;2023-02-22T04:29:04;6.63;86.68
71177;DHT22;58877;51.992;4.504;2023-02-22T04:31:30;6.62;86.77
71177;DHT22;58877;51.992;4.504;2023-02-22T04:33:58;6.62;86.70
71177;DHT22;58877;51.992;4.504;2023-02-22T04:36:25;6.62;86.73
71177;DHT22;58877;51.992;4.504;2023-02-22T04:38:51;6.63;86.69
71177;DHT22;58877;51.992;4.504;2023-02-22T04:41:17;6.56;87.08
71177;DHT22;58877;51.992;4.504;2023-02-22T04:43:45;6.62;87.16
71177;DHT22;58877;51.992;4.504;2023-02-22T04:46:13;6.57;87.03
71177;DHT22;58877;51.992;4.504;2023-02-22T04:48:38;6.55;87.12
71177;DHT22;58877;51.992;4.504;2023-02-22T04:51:04;6.57;87.19
71177;DHT22;58877;51.992;4.504;2023-02-22T04:53:30;6.55;87.34
71177;DHT22;58877;51.992;4.504;2023-02-22T04:55:56;6.56;87.48
71177;DHT22;58877;51.992;4.504;2023-02-22T04:58:22;6.61;87.52
71177;DHT22;58877;51.992;4.504;2023-02-22T05:00:48;6.63;87.49
71177;DHT22;58877;51.992;4.504;2023-02-22T05:03:13;6.62;87.50
71177;DHT22;58877;51.992;4.504;2023-02-22T05:05:39;6.65;87.47
71177;DHT22;58877;51.992;4.504;2023-02-22T05:08:05;6.57;87.50
71177;DHT22;58877;51.992;4.504;2023-02-22T05:10:30;6.55;87.72
71177;DHT22;58877;51.992;4.504;2023-02-22T05:12:56;6.48;87.97
71177;DHT22;58877;51.992;4.504;2023-02-22T05:15:22;6.48;87.98
71177;DHT22;58877;51.992;4.504;2023-02-22T05:17:51;6.50;88.13
71177;DHT22;58877;51.992;4.504;2023-02-22T05:20:25;6.50;88.21
71177;DHT22;58877;51.992;4.504;2023-02-22T05:22:56;6.59;88.31
71177;DHT22;58877;51.992;4.504;2023-02-22T05:25:23;6.59;88.11
71177;DHT22;58877;51.992;4.504;2023-02-22T05:27:54;6.63;88.06
71177;DHT22;58877;51.992;4.504;2023-02-22T05:30:25;6.63;88.05
71177;DHT22;58877;51.992;4.504;2023-02-22T05:32:51;6.57;88.18
71177;DHT22;58877;51.992;4.504;2023-02-22T05:35:22;6.53;88.44
71177;DHT22;58877;51.992;4.504;2023-02-22T05:37:54;6.53;88.52
71177;DHT22;58877;51.992;4.504;2023-02-22T05:40:26;6.59;88.65
71177;DHT22;58877;51.992;4.504;2023-02-22T05:42:52;6.65;88.60
71177;DHT22;58877;51.992;4.504;2023-02-22T05:45:21;6.69;88.60
71177;DHT22;58877;51.992;4.504;2023-02-22T05:47:47;6.73;88.62
71177;DHT22;58877;51.992;4.504;2023-02-22T05:50:13;6.77;88.44
71177;DHT22;58877;51.992;4.504;2023-02-22T05:52:39;6.80;88.55
71177;DHT22;58877;51.992;4.504;2023-02-22T05:55:06;6.86;88.32
71177;DHT22;58877;51.992;4.504;2023-02-22T05:57:32;6.90;88.31
71177;DHT22;58877;51.992;4.504;2023-02-22T05:59:58;6.92;88.23
71177;DHT22;58877;51.992;4.504;2023-02-22T06:02:24;6.86;88.01
71177;DHT22;58877;51.992;4.504;2023-02-22T06:04:49;6.83;88.22
71177;DHT22;58877;51.992;4.504;2023-02-22T06:07:15;6.82;88.13
71177;DHT22;58877;51.992;4.504;2023-02-22T06:09:41;6.85;88.24
71177;DHT22;58877;51.992;4.504;2023-02-22T06:12:16;6.86;88.26
71177;DHT22;58877;51.992;4.504;2023-02-22T06:14:52;6.93;88.24
71177;DHT22;58877;51.992;4.504;2023-02-22T06:17:27;6.89;88.24
71177;DHT22;58877;51.992;4.504;2023-02-22T06:19:54;6.89;88.08
71177;DHT22;58877;51.992;4.504;2023-02-22T06:22:20;6.86;88.09
71177;DHT22;58877;51.992;4.504;2023-02-22T06:24:46;6.72;87.95
71177;DHT22;58877;51.992;4.504;2023-02-22T06:27:11;6.68;88.33
71177;DHT22;58877;51.992;4.504;2023-02-22T06:29:37;6.68;88.56
71177;DHT22;58877;51.992;4.504;2023-02-22T06:32:02;6.68;88.62
71177;DHT22;58877;51.992;4.504;2023-02-22T06:34:29;6.66;88.66
71177;DHT22;58877;51.992;4.504;2023-02-22T06:36:54;6.72;88.58
71177;DHT22;58877;51.992;4.504;2023-02-22T06:39:20;6.71;88.47
71177;DHT22;58877;51.992;4.504;2023-02-22T06:41:46;6.73;88.51
71177;DHT22;58877;51.992;4.504;2023-02-22T06:44:13;6.73;88.41
71177;DHT22;58877;51.992;4.504;2023-02-22T06:46:47;6.76;88.57
71177;DHT22;58877;51.992;4.504;2023-02-22T06:49:13;6.86;88.64
71177;DHT22;58877;51.992;4.504;2023-02-22T06:51:39;6.92;88.40
71177;DHT22;58877;51.992;4.504;2023-02-22T06:54:05;6.92;88.30
71177;DHT22;58877;51.992;4.504;2023-02-22T06:56:30;6.92;87.99
71177;DHT22;58877;51.992;4.504;2023-02-22T06:58:56;6.92;88.13
71177;DHT22;58877;51.992;4.504;2023-02-22T07:01:21;6.95;88.14
71177;DHT22;58877;51.992;4.504;2023-02-22T07:03:48;6.93;87.98
71177;DHT22;58877;51.992;4.504;2023-02-22T07:06:26;6.87;88.04
71177;DHT22;58877;51.992;4.504;2023-02-22T07:08:52;6.89;88.18
71177;DHT22;58877;51.992;4.504;2023-02-22T07:11:22;6.87;88.14
71177;DHT22;58877;51.992;4.504;2023-02-22T07:13:47;6.90;88.17
71177;DHT22;58877;51.992;4.504;2023-02-22T07:16:13;6.92;88.15
71177;DHT22;58877;51.992;4.504;2023-02-22T07:18:39;6.96;88.04
71177;DHT22;58877;51.992;4.504;2023-02-22T07:21:05;6.99;87.98
71177;DHT22;58877;51.992;4.504;2023-02-22T07:23:32;7.03;88.01
71177;DHT22;58877;51.992;4.504;2023-02-22T07:26:01;7.06;87.72
71177;DHT22;58877;51.992;4.504;2023-02-22T07:28:27;7.03;87.68
71177;DHT22;58877;51.992;4.504;2023-02-22T07:30:53;6.99;87.64
71177;DHT22;58877;51.992;4.504;2023-02-22T07:33:19;6.96;87.61
71177;DHT22;58877;51.992;4.504;2023-02-22T07:35:47;6.93;87.87
71177;DHT22;58877;51.992;4.504;2023-02-22T07:38:15;6.95;87.92
71177;DHT22;58877;51.992;4.504;2023-02-22T07:40:41;6.96;88.01
71177;DHT22;58877;51.992;4.504;2023-02-22T07:43:25;6.99;87.93
71177;DHT22;58877;51.992;4.504;2023-02-22T07:45:54;6.97;87.89
71177;DHT22;58877;51.992;4.504;2023-02-22T07:48:23;7.06;87.94
71177;DHT22;58877;51.992;4.504;2023-02-22T07:50:48;7.06;87.79
71177;DHT22;58877;51.992;4.504;2023-02-22T07:53:17;7.08;87.86
71177;DHT22;58877;51.992;4.504;2023-02-22T07:55:43;7.16;87.75
71177;DHT22;58877;51.992;4.504;2023-02-22T07:58:13;7.13;87.56
71177;DHT22;58877;51.992;4.504;2023-02-22T08:00:40;7.13;87.57
71177;DHT22;58877;51.992;4.504;2023-02-22T08:03:13;7.20;87.69
71177;DHT22;58877;51.992;4.504;2023-02-22T08:05:41;7.17;87.35
71177;DHT22;58877;51.992;4.504;2023-02-22T08:08:07;7.21;87.56
71177;DHT22;58877;51.992;4.504;2023-02-22T08:10:34;7.14;87.72
71177;DHT22;58877;51.992;4.504;2023-02-22T08:13:02;7.27;87.67
71177;DHT22;58877;51.992;4.504;2023-02-22T08:15:30;7.34;87.66
71177;DHT22;58877;51.992;4.504;2023-02-22T08:17:58;7.46;87.58
71177;DHT22;58877;51.992;4.504;2023-02-22T08:20:24;7.55;87.30
71177;DHT22;58877;51.992;4.504;2023-02-22T08:22:50;7.57;86.94
71177;DHT22;58877;51.992;4.504;2023-02-22T08:25:18;7.57;86.75
71177;DHT22;58877;51.992;4.504;2023-02-22T08:27:45;7.55;86.53
71177;DHT22;58877;51.992;4.504;2023-02-22T08:30:21;7.60;86.65
71177;DHT22;58877;51.992;4.504;2023-02-22T08:32:49;7.55;86.50
71177;DHT22;58877;51.992;4.504;2023-02-22T08:35:20;7.60;86.54
71177;DHT22;58877;51.992;4.504;2023-02-22T08:37:49;7.68;86.32
71177;DHT22;58877;51.992;4.504;2023-02-22T08:40:17;7.82;86.24
71177;DHT22;58877;51.992;4.504;2023-02-22T08:42:44;7.92;86.26
71177;DHT22;58877;51.992;4.504;2023-02-22T08:45:10;7.98;85.92
71177;DHT22;58877;51.992;4.504;2023-02-22T08:47:37;8.05;85.64
71177;DHT22;58877;51.992;4.504;2023-02-22T08:50:04;8.03;85.50
71177;DHT22;58877;51.992;4.504;2023-02-22T08:52:31;8.15;85.47
71177;DHT22;58877;51.992;4.504;2023-02-22T08:54:57;8.19;85.20
71177;DHT22;58877;51.992;4.504;2023-02-22T08:57:23;8.15;84.88
71177;DHT22;58877;51.992;4.504;2023-02-22T08:59:48;8.09;84.83
71177;DHT22;58877;51.992;4.504;2023-02-22T09:02:16;7.96;84.88
71177;DHT22;58877;51.992;4.504;2023-02-22T09:04:43;7.92;84.93
71177;DHT22;58877;51.992;4.504;2023-02-22T09:07:10;7.92;85.08
71177;DHT22;58877;51.992;4.504;2023-02-22T09:09:42;7.99;85.00
71177;DHT22;58877;51.992;4.504;2023-02-22T09:12:07;7.99;84.69
71177;DHT22;58877;51.992;4.504;2023-02-22T09:14:33;8.03;84.82
71177;DHT22;58877;51.992;4.504;2023-02-22T09:16:58;8.13;84.75
71177;DHT22;58877;51.992;4.504;2023-02-22T09:19:27;8.25;84.68
71177;DHT22;58877;51.992;4.504;2023-02-22T09:21:57;8.32;84.17
71177;DHT22;58877;51.992;4.504;2023-02-22T09:24:26;8.36;84.11
71177;DHT22;58877;51.992;4.504;2023-02-22T09:26:52;8.25;83.74
71177;DHT22;58877;51.992;4.504;2023-02-22T09:29:23;8.19;83.87
71177;DHT22;58877;51.992;4.504;2023-02-22T09:31:51;8.22;83.78
71177;DHT22;58877;51.992;4.504;2023-02-22T09:34:19;8.32;83.77
71177;DHT22;58877;51.992;4.504;2023-02-22T09:36:47;8.39;83.48
71177;DHT22;58877;51.992;4.504;2023-02-22T09:39:15;8.42;83.27
71177;DHT22;58877;51.992;4.504;2023-02-22T09:41:51;8.53;83.25
71177;DHT22;58877;51.992;4.504;2023-02-22T09:47:42;8.74;82.47
71177;DHT22;58877;51.992;4.504;2023-02-22T09:50:20;8.83;82.00
71177;DHT22;58877;51.992;4.504;2023-02-22T09:53:06;8.85;81.43
71177;DHT22;58877;51.992;4.504;2023-02-22T09:55:50;8.80;81.23
71177;DHT22;58877;51.992;4.504;2023-02-22T09:58:34;8.77;81.29
71177;DHT22;58877;51.992;4.504;2023-02-22T10:01:30;8.87;81.31
71177;DHT22;58877;51.992;4.504;2023-02-22T10:04:22;8.94;81.12
71177;DHT22;58877;51.992;4.504;2023-02-22T10:09:39;8.99;80.84
71177;DHT22;58877;51.992;4.504;2023-02-22T10:12:24;8.90;81.36
71177;DHT22;58877;51.992;4.504;2023-02-22T10:15:25;8.92;81.40
71177;DHT22;58877;51.992;4.504;2023-02-22T10:20:56;8.99;81.50
71177;DHT22;58877;51.992;4.504;2023-02-22T10:26:24;9.10;81.47
71177;DHT22;58877;51.992;4.504;2023-02-22T10:32:05;9.39;81.35
71177;DHT22;58877;51.992;4.504;2023-02-22T10:34:46;9.54;80.94
71177;DHT22;58877;51.992;4.504;2023-02-22T10:39:57;9.78;79.62
71177;DHT22;58877;51.992;4.504;2023-02-22T10:42:26;9.87;79.44
71177;DHT22;58877;51.992;4.504;2023-02-22T10:44:52;10.00;79.14
71177;DHT22;58877;51.992;4.504;2023-02-22T10:47:19;10.07;78.37
71177;DHT22;58877;51.992;4.504;2023-02-22T10:49:50;10.17;78.19
71177;DHT22;58877;51.992;4.504;2023-02-22T10:52:30;10.24;77.76
71177;DHT22;58877;51.992;4.504;2023-02-22T10:54:59;10.34;77.09
71177;DHT22;58877;51.992;4.504;2023-02-22T10:57:35;10.36;76.82
71177;DHT22;58877;51.992;4.504;2023-02-22T11:03:02;10.37;76.05
71177;DHT22;58877;51.992;4.504;2023-02-22T11:05:35;10.43;75.64
71177;DHT22;58877;51.992;4.504;2023-02-22T11:10:56;10.64;75.14
71177;DHT22;58877;51.992;4.504;2023-02-22T11:15:57;10.67;74.52
71177;DHT22;58877;51.992;4.504;2023-02-22T11:18:34;10.75;74.09
71177;DHT22;58877;51.992;4.504;2023-02-22T11:21:10;10.88;74.09
71177;DHT22;58877;51.992;4.504;2023-02-22T11:23:41;10.97;73.19
71177;DHT22;58877;51.992;4.504;2023-02-22T11:26:10;10.90;72.91
71177;DHT22;58877;51.992;4.504;2023-02-22T11:28:45;10.95;73.13
71177;DHT22;58877;51.992;4.504;2023-02-22T11:31:27;11.00;72.98
71177;DHT22;58877;51.992;4.504;2023-02-22T11:33:59;11.00;72.83
71177;DHT22;58877;51.992;4.504;2023-02-22T11:36:41;10.95;72.12
71177;DHT22;58877;51.992;4.504;2023-02-22T11:39:33;11.05;72.51
71177;DHT22;58877;51.992;4.504;2023-02-22T11:42:25;11.10;72.59
71177;DHT22;58877;51.992;4.504;2023-02-22T11:45:14;11.02;72.31
71177;DHT22;58877;51.992;4.504;2023-02-22T11:47:50;10.95;72.66
71177;DHT22;58877;51.992;4.504;2023-02-22T12:00:49;11.25;72.08
71177;DHT22;58877;51.992;4.504;2023-02-22T12:03:33;11.36;71.61
71177;DHT22;58877;51.992;4.504;2023-02-22T12:06:23;11.42;71.24
71177;DHT22;58877;51.992;4.504;2023-02-22T12:14:36;11.66;70.79
71177;DHT22;58877;51.992;4.504;2023-02-22T12:20:20;11.70;70.99
71177;DHT22;58877;51.992;4.504;2023-02-22T12:27:06;11.79;70.28
71177;DHT22;58877;51.992;4.504;2023-02-22T12:29:36;11.86;70.03
71177;DHT22;58877;51.992;4.504;2023-02-22T12:32:14;11.85;69.89
71177;DHT22;58877;51.992;4.504;2023-02-22T12:34:49;11.90;69.85
71177;DHT22;58877;51.992;4.504;2023-02-22T12:37:33;11.96;70.28
71177;DHT22;58877;51.992;4.504;2023-02-22T12:42:59;12.04;69.97
71177;DHT22;58877;51.992;4.504;2023-02-22T12:45:39;12.14;69.63
71177;DHT22;58877;51.992;4.504;2023-02-22T12:48:42;12.12;69.41
71177;DHT22;58877;51.992;4.504;2023-02-22T12:54:13;11.91;69.09
71177;DHT22;58877;51.992;4.504;2023-02-22T12:56:56;11.72;70.32
71177;DHT22;58877;51.992;4.504;2023-02-22T13:02:00;11.80;70.56
71177;DHT22;58877;51.992;4.504;2023-02-22T13:04:28;11.89;70.52
71177;DHT22;58877;51.992;4.504;2023-02-22T13:07:37;11.83;70.57
71177;DHT22;58877;51.992;4.504;2023-02-22T13:10:28;11.69;71.27
71177;DHT22;58877;51.992;4.504;2023-02-22T13:16:17;11.66;70.98
71177;DHT22;58877;51.992;4.504;2023-02-22T13:22:44;11.82;71.70
71177;DHT22;58877;51.992;4.504;2023-02-22T13:24:57;11.96;71.63
71177;DHT22;58877;51.992;4.504;2023-02-22T13:30:19;12.12;71.16
71177;DHT22;58877;51.992;4.504;2023-02-22T13:33:13;12.16;70.61
71177;DHT22;58877;51.992;4.504;2023-02-22T13:52:13;12.27;71.21
71177;DHT22;58877;51.992;4.504;2023-02-22T13:57:44;12.36;69.96
71177;DHT22;58877;51.992;4.504;2023-02-22T14:10:55;12.29;71.38
71177;DHT22;58877;51.992;4.504;2023-02-22T14:13:29;12.37;71.20
71177;DHT22;58877;51.992;4.504;2023-02-22T14:18:42;12.00;72.30
71177;DHT22;58877;51.992;4.504;2023-02-22T14:21:20;11.96;72.47
71177;DHT22;58877;51.992;4.504;2023-02-22T14:23:54;11.97;72.63
71177;DHT22;58877;51.992;4.504;2023-02-22T14:26:31;12.07;72.79
71177;DHT22;58877;51.992;4.504;2023-02-22T14:31:57;12.12;72.52
71177;DHT22;58877;51.992;4.504;2023-02-22T14:35:03;11.97;72.88
71177;DHT22;58877;51.992;4.504;2023-02-22T14:37:38;11.94;73.31
71177;DHT22;58877;51.992;4.504;2023-02-22T14:40:18;11.96;73.14
71177;DHT22;58877;51.992;4.504;2023-02-22T14:42:48;12.06;72.46
71177;DHT22;58877;51.992;4.504;2023-02-22T14:45:33;12.07;72.95
71177;DHT22;58877;51.992;4.504;2023-02-22T14:51:19;11.80;73.25
71177;DHT22;58877;51.992;4.504;2023-02-22T14:53:50;11.75;73.75
71177;DHT22;58877;51.992;4.504;2023-02-22T14:59:23;11.79;73.87
71177;DHT22;58877;51.992;4.504;2023-02-22T15:02:24;11.62;74.27
71177;DHT22;58877;51.992;4.504;2023-02-22T15:04:54;11.63;74.67
71177;DHT22;58877;51.992;4.504;2023-02-22T15:07:28;11.62;74.72
71177;DHT22;58877;51.992;4.504;2023-02-22T15:12:52;11.56;75.06
71177;DHT22;58877;51.992;4.504;2023-02-22T15:15:39;11.58;75.21
71177;DHT22;58877;51.992;4.504;2023-02-22T15:18:18;11.16;76.94
71177;DHT22;58877;51.992;4.504;2023-02-22T15:20:46;10.85;78.17
71177;DHT22;58877;51.992;4.504;2023-02-22T15:23:14;10.88;78.62
71177;DHT22;58877;51.992;4.504;2023-02-22T15:25:47;10.88;78.64
71177;DHT22;58877;51.992;4.504;2023-02-22T15:28:14;11.01;78.68
71177;DHT22;58877;51.992;4.504;2023-02-22T15:30:39;10.87;78.63
71177;DHT22;58877;51.992;4.504;2023-02-22T15:33:16;10.77;79.09
71177;DHT22;58877;51.992;4.504;2023-02-22T15:35:43;10.87;79.31
71177;DHT22;58877;51.992;4.504;2023-02-22T15:40:39;10.94;78.78
71177;DHT22;58877;51.992;4.504;2023-02-22T15:43:23;11.00;79.21
71177;DHT22;58877;51.992;4.504;2023-02-22T15:45:50;11.01;79.11
71177;DHT22;58877;51.992;4.504;2023-02-22T15:48:16;10.70;79.85
71177;DHT22;58877;51.992;4.504;2023-02-22T15:56:14;10.39;81.52
71177;DHT22;58877;51.992;4.504;2023-02-22T15:58:44;10.32;82.10
71177;DHT22;58877;51.992;4.504;2023-02-22T16:01:13;10.37;82.17
71177;DHT22;58877;51.992;4.504;2023-02-22T16:03:59;10.47;82.23
71177;DHT22;58877;51.992;4.504;2023-02-22T16:06:32;10.46;82.13
71177;DHT22;58877;51.992;4.504;2023-02-22T16:09:20;10.33;82.62
71177;DHT22;58877;51.992;4.504;2023-02-22T16:11:49;10.10;83.55
71177;DHT22;58877;51.992;4.504;2023-02-22T16:19:50;9.78;84.96
71177;DHT22;58877;51.992;4.504;2023-02-22T16:22:43;9.82;84.77
71177;DHT22;58877;51.992;4.504;2023-02-22T16:27:48;9.82;85.17
71177;DHT22;58877;51.992;4.504;2023-02-22T16:33:08;9.89;85.19
71177;DHT22;58877;51.992;4.504;2023-02-22T16:35:39;9.85;85.32
71177;DHT22;58877;51.992;4.504;2023-02-22T16:38:07;9.90;84.96
71177;DHT22;58877;51.992;4.504;2023-02-22T16:40:49;9.97;84.86
71177;DHT22;58877;51.992;4.504;2023-02-22T16:43:30;10.02;84.69
71177;DHT22;58877;51.992;4.504;2023-02-22T16:46:02;10.06;84.26
71177;DHT22;58877;51.992;4.504;2023-02-22T16:48:30;10.03;84.13
71177;DHT22;58877;51.992;4.504;2023-02-22T16:51:25;9.97;84.55
71177;DHT22;58877;51.992;4.504;2023-02-22T16:53:53;9.92;84.79
71177;DHT22;58877;51.992;4.504;2023-02-22T16:56:26;9.74;85.00
71177;DHT22;58877;51.992;4.504;2023-02-22T16:58:52;9.81;84.95
71177;DHT22;58877;51.992;4.504;2023-02-22T17:01:19;9.76;85.00
71177;DHT22;58877;51.992;4.504;2023-02-22T17:03:45;9.78;84.69
71177;DHT22;58877;51.992;4.504;2023-02-22T17:06:12;9.82;84.75
71177;DHT22;58877;51.992;4.504;2023-02-22T17:08:41;9.87;84.69
71177;DHT22;58877;51.992;4.504;2023-02-22T17:11:10;9.92;84.49
71177;DHT22;58877;51.992;4.504;2023-02-22T17:13:37;9.99;83.94
71177;DHT22;58877;51.992;4.504;2023-02-22T17:16:05;10.09;84.15
71177;DHT22;58877;51.992;4.504;2023-02-22T17:18:31;10.09;83.91
71177;DHT22;58877;51.992;4.504;2023-02-22T17:21:00;10.09;83.83
71177;DHT22;58877;51.992;4.504;2023-02-22T17:23:26;10.10;83.99
71177;DHT22;58877;51.992;4.504;2023-02-22T17:25:54;10.14;83.77
71177;DHT22;58877;51.992;4.504;2023-02-22T17:28:24;10.10;83.67
71177;DHT22;58877;51.992;4.504;2023-02-22T17:30:51;10.12;83.85
71177;DHT22;58877;51.992;4.504;2023-02-22T17:33:20;10.13;83.51
71177;DHT22;58877;51.992;4.504;2023-02-22T17:35:47;10.17;83.55
71177;DHT22;58877;51.992;4.504;2023-02-22T17:38:14;10.24;83.45
71177;DHT22;58877;51.992;4.504;2023-02-22T17:40:44;10.29;82.91
71177;DHT22;58877;51.992;4.504;2023-02-22T17:43:14;10.23;83.10
71177;DHT22;58877;51.992;4.504;2023-02-22T17:45:40;10.20;83.12
71177;DHT22;58877;51.992;4.504;2023-02-22T17:48:06;10.19;83.45
71177;DHT22;58877;51.992;4.504;2023-02-22T17:50:36;10.30;83.14
71177;DHT22;58877;51.992;4.504;2023-02-22T17:53:02;10.36;82.53
71177;DHT22;58877;51.992;4.504;2023-02-22T17:55:29;10.33;82.62
71177;DHT22;58877;51.992;4.504;2023-02-22T17:57:57;10.27;82.73
71177;DHT22;58877;51.992;4.504;2023-02-22T18:00:29;10.17;82.80
71177;DHT22;58877;51.992;4.504;2023-02-22T18:03:18;10.02;83.50
71177;DHT22;58877;51.992;4.504;2023-02-22T18:05:52;9.90;83.83
71177;DHT22;58877;51.992;4.504;2023-02-22T18:08:22;10.02;83.73
71177;DHT22;58877;51.992;4.504;2023-02-22T18:10:48;10.05;83.73
71177;DHT22;58877;51.992;4.504;2023-02-22T18:13:17;10.16;83.70
71177;DHT22;58877;51.992;4.504;2023-02-22T18:15:44;10.16;83.40
71177;DHT22;58877;51.992;4.504;2023-02-22T18:18:10;10.20;83.13
71177;DHT22;58877;51.992;4.504;2023-02-22T18:20:40;10.27;83.25
71177;DHT22;58877;51.992;4.504;2023-02-22T18:23:14;10.19;82.99
71177;DHT22;58877;51.992;4.504;2023-02-22T18:25:50;10.05;83.41
71177;DHT22;58877;51.992;4.504;2023-02-22T18:28:17;9.93;83.85
71177;DHT22;58877;51.992;4.504;2023-02-22T18:30:44;9.89;84.10
71177;DHT22;58877;51.992;4.504;2023-02-22T18:33:14;9.86;84.19
71177;DHT22;58877;51.992;4.504;2023-02-22T18:35:43;9.83;84.62
71177;DHT22;58877;51.992;4.504;2023-02-22T18:38:13;9.72;84.71
71177;DHT22;58877;51.992;4.504;2023-02-22T18:41:08;9.55;84.84
71177;DHT22;58877;51.992;4.504;2023-02-22T18:43:35;9.66;84.97
71177;DHT22;58877;51.992;4.504;2023-02-22T18:46:18;9.45;85.26
71177;DHT22;58877;51.992;4.504;2023-02-22T18:48:45;9.36;85.40
71177;DHT22;58877;51.992;4.504;2023-02-22T18:51:14;9.32;85.65
71177;DHT22;58877;51.992;4.504;2023-02-22T18:53:41;9.34;85.89
71177;DHT22;58877;51.992;4.504;2023-02-22T18:56:17;9.28;86.12
71177;DHT22;58877;51.992;4.504;2023-02-22T18:58:46;9.30;86.34
71177;DHT22;58877;51.992;4.504;2023-02-22T19:01:17;9.30;86.62